Time;durP1;ratioP1;P1;durP2;ratioP2;P2;SDS_P1;SDS_P2;PMS_P1;PMS_P2;Temp;Humidity;BMP_temperature;BMP_pressure;BME280_temperature;BME280_humidity;BME280_pressure;Samples;Min_cycle;Max_cycle;Signal;HPM_P1;HPM_P2
2022/11/14 00:01:31;;;;;;;0.10;0.10;;;;;;;6.12;100.00;96490.97;4937357;28;20051;-77
2022/11/14 00:04:36;;;;;;;0.10;0.10;;;;;;;6.09;100.00;96480.78;4916670;28;20058;-80
2022/11/14 00:07:44;;;;;;;0.10;0.10;;;;;;;6.07;100.00;96478.34;4919130;28;20419;-76
2022/11/14 00:10:50;;;;;;;0.10;0.10;;;;;;;6.16;100.00;96486.84;4938287;28;20399;-78
2022/11/14 00:13:55;;;;;;;0.10;0.10;;;;;;;6.10;100.00;96471.78;4913558;28;20525;-78
2022/11/14 00:16:59;;;;;;;0.10;0.10;;;;;;;6.15;100.00;96474.59;4915368;28;20096;-78
2022/11/14 00:20:05;;;;;;;0.10;0.10;;;;;;;6.20;100.00;96474.72;4936709;28;20228;-77
2022/11/14 00:23:10;;;;;;;0.10;0.10;;;;;;;6.23;100.00;96474.31;4916367;28;20133;-79
2022/11/14 00:26:14;;;;;;;0.10;0.10;;;;;;;6.20;100.00;96479.22;4917073;28;20038;-80
2022/11/14 00:29:19;;;;;;;0.10;0.10;;;;;;;6.16;100.00;96476.22;4937234;28;20041;-79
2022/11/14 00:32:23;;;;;;;0.10;0.10;;;;;;;6.17;100.00;96469.06;4913391;28;20109;-80
2022/11/14 00:35:28;;;;;;;0.10;0.10;;;;;;;6.12;100.00;96472.38;4916190;28;20049;-77
2022/11/14 00:38:32;;;;;;;0.10;0.10;;;;;;;6.11;100.00;96462.78;4939511;28;20562;-76
2022/11/14 00:41:37;;;;;;;0.10;0.10;;;;;;;6.09;100.00;96459.53;4924966;28;20100;-78
2022/11/14 00:44:42;;;;;;;0.10;0.10;;;;;;;6.07;100.00;96459.75;4914044;28;20072;-75
2022/11/14 00:47:47;;;;;;;0.10;0.10;;;;;;;6.09;100.00;96463.00;4934629;28;20042;-79
2022/11/14 00:50:51;;;;;;;0.10;0.10;;;;;;;6.05;100.00;96456.47;4912476;28;20041;-79
2022/11/14 00:53:55;;;;;;;0.10;0.10;;;;;;;6.01;100.00;96454.50;4902600;28;20048;-79
2022/11/14 00:57:00;;;;;;;0.10;0.10;;;;;;;6.01;100.00;96446.53;4941200;28;20062;-75
2022/11/14 01:00:05;;;;;;;0.10;0.10;;;;;;;6.00;100.00;96453.69;4898865;28;20507;-76
2022/11/14 01:03:10;;;;;;;0.10;0.10;;;;;;;5.93;100.00;96458.25;4913933;28;20636;-76
2022/11/14 01:06:15;;;;;;;0.10;0.10;;;;;;;5.96;100.00;96449.84;4937443;28;20038;-78
2022/11/14 01:09:20;;;;;;;0.10;0.10;;;;;;;5.95;100.00;96466.00;4916261;28;20561;-77
2022/11/14 01:12:24;;;;;;;0.10;0.10;;;;;;;5.93;100.00;96452.94;4911773;28;20476;-75
2022/11/14 01:15:29;;;;;;;0.10;0.10;;;;;;;5.92;100.00;96445.19;4936605;28;20258;-77
2022/11/14 01:18:35;;;;;;;0.10;0.10;;;;;;;5.83;100.00;96441.94;4904275;28;20061;-79
2022/11/14 01:21:40;;;;;;;0.10;0.10;;;;;;;5.76;100.00;96435.91;4914755;28;21179;-78
2022/11/14 01:24:44;;;;;;;0.10;0.10;;;;;;;5.71;100.00;96428.59;4936582;28;20041;-78
2022/11/14 01:27:50;;;;;;;0.10;0.10;;;;;;;5.77;100.00;96433.03;4919093;28;20124;-79
2022/11/14 01:30:55;;;;;;;0.10;0.10;;;;;;;5.72;100.00;96426.75;4916505;28;21112;-78
2022/11/14 01:33:59;;;;;;;0.10;0.10;;;;;;;5.67;100.00;96424.75;4932390;28;20356;-78
2022/11/14 01:37:06;;;;;;;0.10;0.10;;;;;;;5.57;100.00;96417.28;4908346;28;20915;-78
2022/11/14 01:40:11;;;;;;;0.10;0.10;;;;;;;5.62;100.00;96421.94;4921338;28;21427;-76
2022/11/14 01:43:15;;;;;;;0.10;0.10;;;;;;;5.53;100.00;96415.28;4932829;28;20341;-77
2022/11/14 01:46:36;;;;;;;0.10;0.10;;;;;;;5.47;100.00;96406.34;4919463;28;20070;-79
2022/11/14 01:49:49;;;;;;;0.10;0.10;;;;;;;5.43;100.00;96401.69;4933900;28;20092;-78
2022/11/14 01:52:53;;;;;;;0.10;0.10;;;;;;;5.42;100.00;96389.44;4914931;28;20096;-79
2022/11/14 01:56:03;;;;;;;0.10;0.10;;;;;;;5.37;100.00;96383.97;4912791;28;20488;-79
2022/11/14 01:59:23;;;;;;;0.10;0.10;;;;;;;5.25;100.00;96362.66;4934877;28;20043;-77
2022/11/14 02:02:28;;;;;;;0.10;0.10;;;;;;;5.23;100.00;96365.53;4903676;28;20050;-77
2022/11/14 02:05:33;;;;;;;0.10;0.10;;;;;;;5.20;100.00;96354.50;4927744;28;20224;-74
2022/11/14 02:08:39;;;;;;;0.10;0.10;;;;;;;5.16;100.00;96359.44;4917918;28;20378;-77
2022/11/14 02:11:46;;;;;;;0.10;0.10;;;;;;;5.19;100.00;96351.06;4918413;28;20102;-77
2022/11/14 02:14:54;;;;;;;0.10;0.10;;;;;;;5.13;100.00;96348.44;4939070;28;20045;-78
2022/11/14 02:18:00;;;;;;;0.10;0.10;;;;;;;5.08;100.00;96354.41;4914848;28;20034;-76
2022/11/14 02:21:05;;;;;;;0.10;0.10;;;;;;;5.03;100.00;96348.94;4921860;28;20038;-77
2022/11/14 02:24:12;;;;;;;0.10;0.10;;;;;;;5.02;100.00;96345.47;4931632;28;20073;-77
2022/11/14 02:27:16;;;;;;;0.10;0.10;;;;;;;4.97;100.00;96352.44;4913073;28;20125;-78
2022/11/14 02:30:22;;;;;;;0.10;0.10;;;;;;;4.95;100.00;96350.00;4915574;28;20042;-78
2022/11/14 02:33:26;;;;;;;0.10;0.10;;;;;;;4.90;100.00;96338.44;4938357;28;20249;-76
2022/11/14 02:36:31;;;;;;;0.10;0.10;;;;;;;4.85;100.00;96333.78;4914264;28;20121;-77
2022/11/14 02:39:35;;;;;;;0.10;0.10;;;;;;;4.85;100.00;96333.78;4914936;28;20084;-77
2022/11/14 02:42:39;;;;;;;0.10;0.10;;;;;;;4.78;100.00;96329.56;4939024;28;20300;-76
2022/11/14 02:45:44;;;;;;;0.10;0.10;;;;;;;4.75;100.00;96331.63;4916388;28;20034;-77
2022/11/14 02:48:48;;;;;;;0.10;0.10;;;;;;;4.73;100.00;96314.28;4915780;28;20593;-77
2022/11/14 02:51:53;;;;;;;0.10;0.10;;;;;;;4.67;100.00;96320.44;4933331;28;20045;-77
2022/11/14 02:55:03;;;;;;;0.10;0.10;;;;;;;4.64;100.00;96308.44;4925070;28;20041;-78
2022/11/14 02:58:08;;;;;;;0.10;0.10;;;;;;;4.62;100.00;96329.03;4912654;28;20490;-76
2022/11/14 03:01:12;;;;;;;0.10;0.10;;;;;;;4.55;100.00;96317.66;4937738;28;20057;-76
2022/11/14 03:04:17;;;;;;;0.10;0.10;;;;;;;4.55;100.00;96324.81;4914089;28;20057;-79
2022/11/14 03:07:22;;;;;;;0.10;0.10;;;;;;;4.48;100.00;96332.78;4914271;28;21635;-76
2022/11/14 03:10:26;;;;;;;0.10;0.10;;;;;;;4.35;100.00;96311.66;4937603;28;20042;-78
2022/11/14 03:13:35;;;;;;;0.10;0.10;;;;;;;4.39;100.00;96307.59;4914367;28;20042;-79
2022/11/14 03:16:40;;;;;;;0.10;0.10;;;;;;;4.32;100.00;96322.69;4913772;28;21050;-78
2022/11/14 03:19:45;;;;;;;0.10;0.10;;;;;;;4.26;100.00;96313.75;4935601;28;20050;-75
2022/11/14 03:22:52;;;;;;;0.10;0.10;;;;;;;4.27;100.00;96302.13;4916249;28;20045;-79
2022/11/14 03:26:00;;;;;;;0.10;0.10;;;;;;;4.24;100.00;96312.34;4914666;28;20905;-78
2022/11/14 03:29:05;;;;;;;0.10;0.10;;;;;;;4.16;100.00;96300.97;4936908;28;20074;-77
2022/11/14 03:32:10;;;;;;;0.10;0.10;;;;;;;4.17;100.00;96304.44;4916638;28;20037;-76
2022/11/14 03:35:14;;;;;;;0.10;0.10;;;;;;;4.12;100.00;96305.06;4922344;28;21127;-78
2022/11/14 03:38:22;;;;;;;0.10;0.10;;;;;;;4.01;100.00;96310.22;4936463;28;20136;-77
2022/11/14 03:41:27;;;;;;;0.10;0.10;;;;;;;3.96;100.00;96310.84;4915256;28;20096;-78
2022/11/14 03:44:32;;;;;;;0.10;0.10;;;;;;;3.94;100.00;96312.09;4906771;28;20449;-78
2022/11/14 03:47:37;;;;;;;0.10;0.10;;;;;;;3.91;100.00;96314.13;4928625;28;20134;-80
2022/11/14 03:50:42;;;;;;;0.10;0.10;;;;;;;3.88;100.00;96311.06;4912307;28;20530;-80
2022/11/14 03:53:46;;;;;;;0.03;0.03;;;;;;;3.88;100.00;96319.03;4916445;28;21139;-77
2022/11/14 03:56:51;;;;;;;0.10;0.10;;;;;;;3.86;100.00;96323.72;4939201;28;20053;-78
2022/11/14 03:59:58;;;;;;;0.10;0.10;;;;;;;3.81;100.00;96319.06;4926157;28;20042;-75
2022/11/14 04:03:02;;;;;;;0.10;0.10;;;;;;;3.76;100.00;96318.06;4913192;28;20596;-78
2022/11/14 04:06:07;;;;;;;0.10;0.10;;;;;;;3.71;100.00;96310.72;4941284;28;20722;-78
2022/11/14 04:09:14;;;;;;;0.10;0.10;;;;;;;3.68;100.00;96313.00;4924773;28;20737;-79
2022/11/14 04:12:19;;;;;;;0.10;0.10;;;;;;;3.64;100.00;96308.09;4903675;28;21547;-78
2022/11/14 04:15:23;;;;;;;0.10;0.10;;;;;;;3.57;100.00;96304.66;4937841;28;20050;-76
2022/11/14 04:18:29;;;;;;;0.10;0.10;;;;;;;3.58;100.00;96305.47;4923055;28;20077;-78
2022/11/14 04:21:34;;;;;;;0.10;0.10;;;;;;;3.54;100.00;96296.34;4906602;28;20681;-77
2022/11/14 04:24:38;;;;;;;0.10;0.10;;;;;;;3.50;100.00;96303.91;4937842;28;20042;-78
2022/11/14 04:27:45;;;;;;;0.10;0.10;;;;;;;3.48;100.00;96286.59;4923761;28;20042;-78
2022/11/14 04:30:50;;;;;;;0.10;0.10;;;;;;;3.47;100.00;96290.25;4921189;28;20612;-76
2022/11/14 04:33:54;;;;;;;0.10;0.10;;;;;;;3.44;100.00;96283.56;4932840;28;20030;-78
2022/11/14 04:37:02;;;;;;;0.10;0.10;;;;;;;3.42;100.00;96276.81;4928017;28;20415;-78
2022/11/14 04:40:07;;;;;;;0.10;0.10;;;;;;;3.43;100.00;96281.13;4919954;28;20561;-77
2022/11/14 04:43:12;;;;;;;0.10;0.10;;;;;;;3.35;100.00;96267.09;4928562;28;20042;-79
2022/11/14 04:46:19;;;;;;;0.10;0.10;;;;;;;3.39;100.00;96278.06;4928897;28;20042;-79
2022/11/14 04:49:23;;;;;;;0.10;0.10;;;;;;;3.37;100.00;96274.81;4912688;28;20867;-77
2022/11/14 04:52:28;;;;;;;0.10;0.10;;;;;;;3.35;100.00;96272.38;4933859;28;20398;-78
2022/11/14 04:55:36;;;;;;;0.10;0.10;;;;;;;3.33;100.00;96268.31;4923526;28;20176;-79
2022/11/14 04:58:40;;;;;;;0.10;0.10;;;;;;;3.31;100.00;96273.81;4921081;28;20377;-78
2022/11/14 05:01:45;;;;;;;0.10;0.10;;;;;;;3.29;100.00;96260.00;4935192;28;20038;-78
2022/11/14 05:04:54;;;;;;;0.10;0.10;;;;;;;3.24;100.00;96256.34;4913947;28;20062;-79
2022/11/14 05:07:58;;;;;;;0.10;0.10;;;;;;;3.19;100.00;96253.47;4918570;28;20923;-78
2022/11/14 05:11:03;;;;;;;0.10;0.10;;;;;;;3.20;100.00;96260.44;4961096;28;20112;-78
2022/11/14 05:14:08;;;;;;;0.10;0.10;;;;;;;3.15;100.00;96253.09;4981726;28;20490;-79
2022/11/14 05:17:15;;;;;;;0.10;0.10;;;;;;;3.15;100.00;96247.00;4981569;28;20152;-77
2022/11/14 05:20:19;;;;;;;0.10;0.10;;;;;;;3.09;100.00;96245.97;4982328;28;20622;-79
2022/11/14 05:23:24;;;;;;;0.10;0.10;;;;;;;3.12;100.00;96247.44;4979116;28;20312;-79
2022/11/14 05:26:28;;;;;;;0.10;0.10;;;;;;;3.05;100.00;96248.25;4980117;28;20109;-78
2022/11/14 05:29:32;;;;;;;0.10;0.10;;;;;;;2.93;100.00;96252.53;4982659;28;20399;-77
2022/11/14 05:32:36;;;;;;;0.10;0.10;;;;;;;2.93;100.00;96243.78;4976302;28;20104;-78
2022/11/14 05:35:41;;;;;;;0.17;0.17;;;;;;;2.99;100.00;96250.91;4979234;28;20436;-79
2022/11/14 05:38:46;;;;;;;0.10;0.10;;;;;;;2.98;100.00;96247.44;4979939;28;20093;-79
2022/11/14 05:41:53;;;;;;;0.10;0.10;;;;;;;2.93;100.00;96254.34;4981822;28;20372;-78
2022/11/14 05:44:58;;;;;;;0.10;0.10;;;;;;;2.85;100.00;96252.72;4980098;28;20046;-79
2022/11/14 05:48:02;;;;;;;0.10;0.10;;;;;;;2.85;100.00;96250.09;4972240;28;20060;-78
2022/11/14 05:51:10;;;;;;;0.10;0.10;;;;;;;3.03;100.00;96250.25;4984494;28;20049;-75
2022/11/14 05:54:15;;;;;;;0.10;0.10;;;;;;;3.22;100.00;96264.47;4980115;28;20077;-77
2022/11/14 05:57:20;;;;;;;0.10;0.10;;;;;;;3.47;100.00;96261.16;4977682;28;20038;-78
2022/11/14 06:00:26;;;;;;;0.10;0.10;;;;;;;3.55;100.00;96263.56;4981346;28;20056;-75
2022/11/14 06:03:35;;;;;;;0.10;0.10;;;;;;;3.60;100.00;96264.56;4977546;28;20451;-76
2022/11/14 06:06:40;;;;;;;0.10;0.10;;;;;;;3.62;100.00;96265.16;4981074;28;20068;-76
2022/11/14 06:09:45;;;;;;;0.10;0.10;;;;;;;3.67;100.00;96258.44;4981172;28;20133;-77
2022/11/14 06:12:50;;;;;;;0.10;0.10;;;;;;;3.74;100.00;96257.41;4972900;28;20429;-76
2022/11/14 06:16:06;;;;;;;0.10;0.10;;;;;;;3.73;100.00;96249.66;4981340;28;20061;-76
2022/11/14 06:19:10;;;;;;;0.10;0.10;;;;;;;3.72;100.00;96250.69;4979689;28;20067;-78
2022/11/14 06:22:14;;;;;;;0.10;0.10;;;;;;;3.72;100.00;96254.13;4979378;28;20189;-78
2022/11/14 06:25:19;;;;;;;0.10;0.10;;;;;;;3.77;100.00;96258.81;4980332;28;20058;-79
2022/11/14 06:28:23;;;;;;;0.10;0.10;;;;;;;3.69;100.00;96259.84;4978441;28;20264;-76
2022/11/14 06:31:28;;;;;;;0.10;0.10;;;;;;;3.70;100.00;96265.97;4981136;28;20097;-79
2022/11/14 06:34:32;;;;;;;0.10;0.10;;;;;;;3.69;100.00;96254.56;4967605;28;20041;-76
2022/11/14 06:37:37;;;;;;;0.10;0.10;;;;;;;3.72;100.00;96258.63;4980603;28;20282;-77
2022/11/14 06:40:41;;;;;;;0.10;0.10;;;;;;;3.69;100.00;96261.69;4979013;28;20133;-76
2022/11/14 06:43:48;;;;;;;0.10;0.10;;;;;;;3.67;100.00;96258.44;4979390;28;20134;-76
2022/11/14 06:46:52;;;;;;;0.10;0.10;;;;;;;3.71;100.00;96272.88;4980526;28;20187;-77
2022/11/14 06:49:57;;;;;;;0.10;0.10;;;;;;;3.79;100.00;96262.06;4978431;28;20037;-76
2022/11/14 06:53:01;;;;;;;0.10;0.10;;;;;;;3.81;100.00;96265.28;4980044;28;20379;-78
2022/11/14 06:56:07;;;;;;;0.10;0.10;;;;;;;3.93;100.00;96260.97;4979794;28;20558;-76
2022/11/14 06:59:13;;;;;;;0.10;0.10;;;;;;;3.89;100.00;96259.75;4978650;28;20048;-78
2022/11/14 07:02:17;;;;;;;0.10;0.10;;;;;;;3.87;100.00;96257.31;4976557;28;20069;-78
2022/11/14 07:05:22;;;;;;;0.10;0.10;;;;;;;3.98;100.00;96260.34;4943160;28;20514;-77
2022/11/14 07:08:26;;;;;;;0.10;0.10;;;;;;;3.97;100.00;96259.53;4936424;28;20055;-79
2022/11/14 07:11:32;;;;;;;0.10;0.10;;;;;;;3.91;100.00;96250.59;4940724;28;20383;-77
2022/11/14 07:14:36;;;;;;;0.10;0.10;;;;;;;3.99;100.00;96252.19;4941489;28;20602;-77
2022/11/14 07:17:40;;;;;;;0.10;0.10;;;;;;;3.83;100.00;96253.50;4941975;28;20047;-77
2022/11/14 07:20:47;;;;;;;0.10;0.10;;;;;;;3.79;100.00;96246.16;4943049;28;20198;-77
2022/11/14 07:23:52;;;;;;;0.10;0.10;;;;;;;3.84;100.00;96247.16;4940368;28;20512;-76
2022/11/14 07:26:56;;;;;;;0.10;0.10;;;;;;;3.76;100.00;96242.13;4941317;28;20122;-77
2022/11/14 07:30:01;;;;;;;0.10;0.10;;;;;;;3.80;100.00;96240.66;4942752;28;20109;-78
2022/11/14 07:33:06;;;;;;;0.10;0.10;;;;;;;3.96;100.00;96233.25;4942724;28;20050;-77
2022/11/14 07:36:12;;;;;;;0.10;0.10;;;;;;;3.76;100.00;96236.81;4942933;28;20042;-76
2022/11/14 07:39:16;;;;;;;0.10;0.10;;;;;;;3.73;100.00;96236.41;4938764;28;20042;-78
2022/11/14 07:42:21;;;;;;;0.10;0.10;;;;;;;3.66;100.00;96241.75;4944560;28;20040;-79
2022/11/14 07:45:28;;;;;;;0.10;0.10;;;;;;;3.66;100.00;96231.19;4939835;28;20051;-80
2022/11/14 07:48:33;;;;;;;0.10;0.10;;;;;;;3.67;100.00;96242.56;4939796;28;20396;-80
2022/11/14 07:51:37;;;;;;;0.10;0.10;;;;;;;3.73;100.00;96245.16;4932029;28;20062;-77
2022/11/14 07:54:41;;;;;;;0.10;0.10;;;;;;;3.78;100.00;96242.72;4937660;28;20563;-77
2022/11/14 07:57:47;;;;;;;0.10;0.10;;;;;;;3.71;100.00;96241.94;4940224;28;20280;-77
2022/11/14 08:00:51;;;;;;;0.10;0.10;;;;;;;3.67;100.00;96248.69;4940006;28;20245;-77
2022/11/14 08:03:55;;;;;;;0.10;0.10;;;;;;;3.82;100.00;96245.75;4964117;28;20085;-76
2022/11/14 08:07:00;;;;;;;0.10;0.10;;;;;;;3.75;100.00;96243.16;4978498;28;20026;-76
2022/11/14 08:10:07;;;;;;;0.10;0.10;;;;;;;3.82;100.00;96238.63;4979907;28;20397;-78
2022/11/14 08:13:11;;;;;;;0.10;0.10;;;;;;;4.07;100.00;96243.19;4984082;28;20138;-76
2022/11/14 08:16:16;;;;;;;0.10;0.10;;;;;;;4.07;100.00;96244.00;4984551;28;20168;-77
2022/11/14 08:19:20;;;;;;;0.10;0.10;;;;;;;4.02;100.00;96243.81;4980789;28;20072;-79
2022/11/14 08:22:25;;;;;;;0.10;0.10;;;;;;;3.86;100.00;96239.00;4973789;28;20050;-78
2022/11/14 08:25:29;;;;;;;0.10;0.10;;;;;;;3.74;100.00;96251.31;4982471;28;20154;-79
2022/11/14 08:28:34;;;;;;;0.10;0.10;;;;;;;3.65;100.00;96256.00;4985322;28;20357;-77
2022/11/14 08:31:38;;;;;;;0.10;0.10;;;;;;;3.87;100.00;96248.56;4982912;28;20214;-79
2022/11/14 08:34:43;;;;;;;0.10;0.10;;;;;;;3.66;100.00;96241.75;4982141;28;20049;-78
2022/11/14 08:37:48;;;;;;;0.10;0.10;;;;;;;3.59;100.00;96254.22;4982110;28;20041;-78
2022/11/14 08:40:52;;;;;;;0.10;0.10;;;;;;;3.58;100.00;96257.84;4983832;28;20046;-77
2022/11/14 08:43:57;;;;;;;0.10;0.10;;;;;;;3.56;100.00;96268.66;4983723;28;20053;-77
2022/11/14 08:47:02;;;;;;;0.10;0.10;;;;;;;3.62;100.00;96259.06;4982711;28;20042;-77
2022/11/14 08:50:07;;;;;;;0.10;0.10;;;;;;;3.72;100.00;96275.31;4984589;28;20049;-78
2022/11/14 08:53:11;;;;;;;0.10;0.10;;;;;;;3.80;100.00;96263.66;4983961;28;20521;-77
2022/11/14 08:56:16;;;;;;;0.15;0.15;;;;;;;3.86;100.00;96268.13;4981656;28;20571;-79
2022/11/14 08:59:20;;;;;;;0.10;0.10;;;;;;;3.99;100.00;96264.63;4980413;28;20043;-79
2022/11/14 09:02:25;;;;;;;0.10;0.10;;;;;;;3.95;100.00;96261.56;4979296;28;20499;-78
2022/11/14 09:05:29;;;;;;;0.10;0.10;;;;;;;4.07;100.00;96257.22;4979896;28;20357;-79
2022/11/14 09:08:33;;;;;;;0.10;0.10;;;;;;;4.16;100.00;96249.84;4981420;28;20486;-78
2022/11/14 09:11:38;;;;;;;0.10;0.10;;;;;;;4.36;100.00;96247.91;4981088;28;20049;-79
2022/11/14 09:14:42;;;;;;;0.10;0.10;;;;;;;4.66;100.00;96249.91;4978937;28;20688;-79
2022/11/14 09:17:47;;;;;;;0.10;0.10;;;;;;;4.83;100.00;96247.53;4975871;28;20489;-80
2022/11/14 09:20:51;;;;;;;0.10;0.10;;;;;;;4.78;100.00;96242.06;4976303;28;20336;-78
2022/11/14 09:23:55;;;;;;;0.10;0.10;;;;;;;4.60;100.00;96251.59;4973805;28;20108;-78
2022/11/14 09:26:59;;;;;;;0.10;0.10;;;;;;;4.52;100.00;96259.81;4977997;28;20129;-79
2022/11/14 09:30:04;;;;;;;0.10;0.10;;;;;;;4.54;100.00;96259.59;4979507;28;20042;-79
2022/11/14 09:33:09;;;;;;;0.10;0.10;;;;;;;4.99;100.00;96258.41;4973838;28;20104;-77
2022/11/14 09:36:14;;;;;;;0.10;0.10;;;;;;;5.12;100.00;96272.56;4977335;28;20776;-77
2022/11/14 09:39:19;;;;;;;0.10;0.10;;;;;;;4.85;100.00;96269.34;4975710;28;20219;-79
2022/11/14 09:43:01;;;;;;;0.10;0.10;;;;;;;4.73;100.00;96261.25;4974989;28;20051;-79
2022/11/14 09:46:30;;;;;;;0.10;0.10;;;;;;;4.96;100.00;96252.72;4979161;28;20042;-79
2022/11/14 09:49:38;;;;;;;0.13;0.13;;;;;;;4.89;100.00;96250.13;4977976;28;20038;-78
2022/11/14 09:52:48;;;;;;;0.10;0.10;;;;;;;4.77;100.00;96264.31;4978189;28;20065;-76
2022/11/14 09:55:53;;;;;;;0.10;0.10;;;;;;;4.73;100.00;96267.38;4979163;28;20128;-76
2022/11/14 09:58:57;;;;;;;0.10;0.10;;;;;;;4.59;100.00;96270.34;4976062;28;20053;-77
2022/11/14 10:02:16;;;;;;;0.10;0.10;;;;;;;4.86;100.00;96271.78;4978436;28;20135;-78
2022/11/14 10:05:23;;;;;;;0.10;0.10;;;;;;;4.88;100.00;96274.19;4977142;28;20088;-79
2022/11/14 10:08:34;;;;;;;0.10;0.10;;;;;;;4.74;100.00;96278.78;4971406;28;20048;-79
2022/11/14 10:11:48;;;;;;;0.10;0.10;;;;;;;4.54;100.00;96280.78;4976639;28;20776;-77
2022/11/14 10:15:12;;;;;;;0.20;0.20;;;;;;;4.75;100.00;96270.66;4974832;28;20065;-79
2022/11/14 10:18:29;;;;;;;0.10;0.10;;;;;;;4.72;100.00;96270.25;4975487;28;20037;-79
2022/11/14 10:21:59;;;;;;;0.10;0.10;;;;;;;4.73;100.00;96261.25;4964702;28;20044;-77
2022/11/14 10:25:24;;;;;;;0.10;0.10;;;;;;;4.54;100.00;96265.69;4975732;28;20324;-77
2022/11/14 10:28:40;;;;;;;0.10;0.10;;;;;;;4.55;100.00;96259.38;4973475;28;20310;-78
2022/11/14 10:31:57;;;;;;;0.10;0.10;;;;;;;4.52;100.00;96265.13;4974627;28;20560;-77
2022/11/14 10:35:15;;;;;;;0.10;0.10;;;;;;;4.52;100.00;96259.00;4976338;28;20542;-76
2022/11/14 10:38:53;;;;;;;0.10;0.10;;;;;;;4.68;100.00;96263.78;4978417;28;20042;-79
2022/11/14 10:42:03;;;;;;;0.10;0.10;;;;;;;4.88;100.00;96252.97;4983644;28;20582;-77
2022/11/14 10:45:22;;;;;;;0.10;0.10;;;;;;;4.98;100.00;96248.00;4947913;28;20054;-78
2022/11/14 10:48:56;;;;;;;0.13;0.13;;;;;;;5.13;100.00;96245.81;4979300;28;20157;-80
2022/11/14 10:52:06;;;;;;;0.10;0.10;;;;;;;5.43;100.00;96224.69;4976085;28;20363;-79
2022/11/14 10:55:17;;;;;;;0.20;0.20;;;;;;;5.25;100.00;96236.09;4980102;28;20483;-79
2022/11/14 10:58:22;;;;;;;0.10;0.10;;;;;;;5.31;100.00;96229.94;4979890;28;20042;-81
2022/11/14 11:01:49;;;;;;;0.10;0.10;;;;;;;4.92;100.00;96231.13;4969987;28;20125;-77
2022/11/14 11:05:12;;;;;;;0.10;0.10;;;;;;;5.13;100.00;96232.53;4980216;28;20046;-79
2022/11/14 11:12:00;;;;;;;0.20;0.20;;;;;;;5.37;100.00;96225.59;4979072;28;20467;-79
2022/11/14 11:15:20;;;;;;;0.13;0.13;;;;;;;5.30;100.00;96228.31;4982156;28;20053;-78
2022/11/14 11:18:35;;;;;;;0.10;0.10;;;;;;;5.13;100.00;96226.44;4979622;28;20304;-80
2022/11/14 11:21:48;;;;;;;0.10;0.10;;;;;;;5.26;100.00;96232.41;4980543;28;20700;-78
2022/11/14 11:24:53;;;;;;;0.10;0.10;;;;;;;5.29;100.00;96225.84;4978274;28;20046;-79
2022/11/14 11:28:10;;;;;;;0.10;0.10;;;;;;;5.10;100.00;96219.72;4979138;28;20516;-77
2022/11/14 11:31:14;;;;;;;0.10;0.10;;;;;;;5.04;100.00;96225.91;4978899;28;20068;-80
2022/11/14 11:34:32;;;;;;;0.10;0.10;;;;;;;4.58;100.00;96219.19;4979345;28;20526;-79
2022/11/14 11:37:55;;;;;;;0.10;0.10;;;;;;;4.70;100.00;96206.03;4782096;28;10000490;-78
2022/11/14 11:41:11;;;;;;;0.10;0.10;;;;;;;4.66;100.00;96213.59;4978393;28;20612;-75
2022/11/14 11:44:17;;;;;;;0.10;0.10;;;;;;;4.41;100.00;96207.50;4977423;28;20053;-77
2022/11/14 11:47:22;;;;;;;0.10;0.10;;;;;;;4.47;100.00;96210.09;4975738;28;20133;-78
2022/11/14 11:50:27;;;;;;;0.10;0.10;;;;;;;4.49;100.00;96201.94;4981170;28;20135;-77
2022/11/14 11:53:41;;;;;;;0.10;0.10;;;;;;;4.64;100.00;96214.84;4982809;28;20038;-80
2022/11/14 11:56:51;;;;;;;0.20;0.20;;;;;;;4.69;100.00;96202.59;4981253;28;20052;-79
2022/11/14 12:00:04;;;;;;;0.10;0.10;;;;;;;4.99;100.00;96197.41;4986116;28;20344;-80
2022/11/14 12:03:12;;;;;;;0.10;0.10;;;;;;;4.92;100.00;96188.72;4983414;28;20057;-78
2022/11/14 12:06:23;;;;;;;0.10;0.10;;;;;;;4.97;100.00;96196.00;4986982;28;20049;-78
2022/11/14 12:09:40;;;;;;;0.10;0.10;;;;;;;4.71;100.00;96194.41;4985406;28;20422;-80
2022/11/14 12:12:57;;;;;;;0.10;0.10;;;;;;;4.71;100.00;96194.41;4980171;28;20288;-81
2022/11/14 12:16:30;;;;;;;0.10;0.10;;;;;;;4.64;100.00;96185.69;4985711;28;20038;-79
2022/11/14 12:20:08;;;;;;;0.17;0.17;;;;;;;4.95;100.00;96190.91;4944165;28;20510;-76
2022/11/14 12:24:00;;;;;;;0.10;0.10;;;;;;;4.87;100.00;96195.69;4973393;28;20479;-78
2022/11/14 12:27:13;;;;;;;0.10;0.10;;;;;;;4.71;100.00;96203.16;4980654;28;20030;-78
2022/11/14 12:30:23;;;;;;;0.10;0.10;;;;;;;4.86;100.00;96194.06;4980299;28;20046;-79
2022/11/14 12:33:48;;;;;;;0.10;0.10;;;;;;;5.04;100.00;96184.28;4980968;28;20153;-79
2022/11/14 12:36:53;;;;;;;0.10;0.10;;;;;;;5.17;100.00;96177.22;4982087;28;20127;-77
2022/11/14 12:40:01;;;;;;;0.10;0.10;;;;;;;5.16;100.00;96171.13;4947136;28;20054;-79
2022/11/14 12:43:27;;;;;;;0.10;0.10;;;;;;;5.26;100.00;96160.78;4980457;28;20049;-79
2022/11/14 12:47:11;;;;;;;0.10;0.10;;;;;;;5.32;100.00;96154.59;4983124;28;20878;-78
2022/11/14 12:50:39;;;;;;;0.10;0.10;;;;;;;5.48;100.00;96147.88;4983009;28;20112;-78
2022/11/14 12:53:44;;;;;;;0.10;0.10;;;;;;;5.76;100.00;96134.03;4984844;28;20543;-77
2022/11/14 12:56:59;;;;;;;0.10;0.10;;;;;;;5.85;100.00;96140.63;4982491;28;20035;-78
2022/11/14 13:00:07;;;;;;;0.10;0.10;;;;;;;5.61;100.00;96124.84;4982609;28;20327;-79
2022/11/14 13:03:42;;;;;;;0.10;0.10;;;;;;;5.50;100.00;96137.03;4981031;28;20431;-80
2022/11/14 13:07:07;;;;;;;0.15;0.15;;;;;;;5.68;100.00;96126.38;4982746;28;20042;-80
2022/11/14 13:10:37;;;;;;;0.10;0.10;;;;;;;5.84;100.00;96114.31;4979679;28;20046;-79
2022/11/14 13:24:57;;;;;;;0.10;0.10;;;;;;;6.14;100.00;96107.13;4983626;28;20478;-77
2022/11/14 13:28:38;;;;;;;0.10;0.10;;;;;;;6.02;100.00;96105.50;4980063;28;20038;-79
2022/11/14 13:31:48;;;;;;;0.10;0.10;;;;;;;5.90;100.00;96101.97;4985367;28;20054;-79
2022/11/14 13:35:02;;;;;;;0.10;0.10;;;;;;;5.77;100.00;96110.94;4981435;28;20498;-78
2022/11/14 13:38:24;;;;;;;0.20;0.20;;;;;;;5.59;100.00;96109.13;4975820;28;20073;-79
2022/11/14 13:42:02;;;;;;;0.10;0.10;;;;;;;5.55;100.00;96105.31;4983365;28;20041;-80
2022/11/14 13:45:12;;;;;;;0.10;0.10;;;;;;;5.55;100.00;96102.66;4982078;28;20054;-77
2022/11/14 13:48:55;;;;;;;0.10;0.10;;;;;;;5.47;100.00;96098.47;4980574;28;20531;-77
2022/11/14 13:52:00;;;;;;;0.10;0.10;;;;;;;5.72;100.00;96095.69;4982238;28;20040;-79
2022/11/14 13:55:06;;;;;;;0.10;0.10;;;;;;;5.66;100.00;96096.56;4981022;28;20057;-78
2022/11/14 13:59:01;;;;;;;0.10;0.10;;;;;;;5.72;100.00;96108.16;4978605;28;20041;-78
2022/11/14 14:02:30;;;;;;;0.17;0.10;;;;;;;5.63;100.00;96086.44;4949707;28;20125;-76
2022/11/14 14:05:55;;;;;;;0.10;0.10;;;;;;;5.70;100.00;96099.59;4979228;28;20128;-79
2022/11/14 14:09:21;;;;;;;0.10;0.10;;;;;;;5.69;100.00;96095.34;4976285;28;20108;-78
2022/11/14 14:12:53;;;;;;;0.13;0.13;;;;;;;5.58;100.00;96094.25;4978737;28;20074;-77
2022/11/14 14:16:16;;;;;;;0.10;0.10;;;;;;;5.52;100.00;96106.56;4981696;28;20037;-78
2022/11/14 14:19:36;;;;;;;0.10;0.10;;;;;;;5.51;100.00;96102.28;4975795;28;20086;-78
2022/11/14 14:23:14;;;;;;;0.10;0.10;;;;;;;5.52;100.00;96085.31;4980449;28;20068;-77
2022/11/14 14:26:37;;;;;;;0.10;0.10;;;;;;;5.52;100.00;96089.84;4983593;28;20042;-79
2022/11/14 14:29:51;;;;;;;0.10;0.10;;;;;;;5.46;100.00;96080.13;4980881;28;20467;-78
2022/11/14 14:33:13;;;;;;;0.10;0.10;;;;;;;5.51;100.00;96083.72;4973296;28;20575;-76
2022/11/14 14:36:29;;;;;;;0.10;0.10;;;;;;;5.56;100.00;96081.19;4982840;28;20550;-76
2022/11/14 14:39:33;;;;;;;0.10;0.10;;;;;;;5.65;100.00;96078.22;4980587;28;20049;-78
2022/11/14 14:42:40;;;;;;;0.10;0.10;;;;;;;5.49;100.00;96084.97;4984721;28;20039;-79
2022/11/14 14:45:50;;;;;;;0.10;0.10;;;;;;;5.56;100.00;96075.09;4979129;28;20046;-79
2022/11/14 14:48:56;;;;;;;0.10;0.10;;;;;;;5.57;100.00;96076.72;4978919;28;20121;-78
2022/11/14 14:52:01;;;;;;;0.10;0.10;;;;;;;5.62;100.00;96071.53;4978558;28;20056;-80
2022/11/14 14:55:17;;;;;;;0.13;0.13;;;;;;;5.67;100.00;96065.53;4981557;28;20585;-78
2022/11/14 14:58:21;;;;;;;0.10;0.10;;;;;;;5.75;100.00;96068.66;4979658;28;20454;-79
2022/11/14 15:01:34;;;;;;;0.10;0.10;;;;;;;5.68;100.00;96062.69;4979042;28;20053;-78
2022/11/14 15:04:39;;;;;;;0.10;0.10;;;;;;;5.71;100.00;96056.91;4978093;28;20356;-78
2022/11/14 15:07:45;;;;;;;0.10;0.10;;;;;;;5.70;100.00;96049.97;4966585;28;20042;-78